Waco, Georgia
Current Conditions -  °F | °C
As of 9:35 AM on Sunday 23 Nov 2014 (Local Time) from KPUJ Reporting Station
Moderate Rain Moderate Rain  
Wind Chill: 50°   Ceiling: 200
Heat Index: 50°   Visibility: 2.5mi
Dew Point: 50°   Wind: 13mph
Humidity: 100%   Direction: 110°ESE
Pressure: 29.98"   Gusts: 17mph
Location:  33.7°N, 85.18°W
Report Text: KPUJ 231435Z AUTO 11011G15KT 2 1/2SM RA OVC002 10/10 A2998 RMK AO2
Loading
Personal Weather Stations






























Interactive Weather Map New forecast layout! Learn more

10-Day Weather Forecast

Advertisements
Track Severe Weather on mobile